Time;durP1;ratioP1;P1;durP2;ratioP2;P2;SDS_P1;SDS_P2;PMS_P1;PMS_P2;Temp;Humidity;BMP_temperature;BMP_pressure;BME280_temperature;BME280_humidity;BME280_pressure;Samples;Min_cycle;Max_cycle;Signal;HPM_P1;HPM_P2
2023/07/22 00:00:15;;;;;;;;;;;13.00;99.90;;;;;;5111703;28;20014;-79
2023/07/22 00:02:41;;;;;;;;;;;13.00;99.90;;;;;;5111437;28;19919;-80
2023/07/22 00:05:07;;;;;;;;;;;12.90;99.90;;;;;;5112601;28;19946;-79
2023/07/22 00:07:33;;;;;;;;;;;12.90;99.90;;;;;;5111426;28;19927;-76
2023/07/22 00:10:05;;;;;;;;;;;12.90;99.90;;;;;;5111440;28;19969;-77
2023/07/22 00:12:30;;;;;;;;;;;12.90;99.90;;;;;;5112029;28;20670;-79
2023/07/22 00:14:56;;;;;;;;;;;12.90;99.90;;;;;;5094379;28;20010;-78
2023/07/22 00:17:22;;;;;;;;;;;12.90;99.90;;;;;;5094595;28;20376;-79
2023/07/22 00:19:49;;;;;;;;;;;12.90;99.90;;;;;;5111147;28;19930;-79
2023/07/22 00:22:17;;;;;;;;;;;12.90;99.90;;;;;;5094811;28;19924;-76
2023/07/22 00:24:43;;;;;;;;;;;12.90;99.90;;;;;;5111379;28;20304;-77
2023/07/22 00:27:08;;;;;;;;;;;12.90;99.90;;;;;;5077290;28;19924;-75
2023/07/22 00:29:34;;;;;;;;;;;12.90;99.90;;;;;;5111040;28;19924;-78
2023/07/22 00:32:00;;;;;;;;;;;12.90;99.90;;;;;;5094479;28;20318;-80
2023/07/22 00:34:26;;;;;;;;;;;12.80;99.90;;;;;;5111606;28;19920;-76
2023/07/22 00:36:52;;;;;;;;;;;12.70;99.90;;;;;;5094276;28;19967;-78
2023/07/22 00:39:18;;;;;;;;;;;12.60;99.90;;;;;;5094472;28;19965;-78
2023/07/22 00:41:46;;;;;;;;;;;12.60;99.90;;;;;;5094432;28;19919;-76
2023/07/22 00:44:12;;;;;;;;;;;12.50;99.90;;;;;;5099743;28;19986;-80
2023/07/22 00:46:38;;;;;;;;;;;12.40;99.90;;;;;;5090915;28;20269;-78
2023/07/22 00:49:06;;;;;;;;;;;12.30;99.90;;;;;;5073765;28;19924;-78
2023/07/22 00:51:31;;;;;;;;;;;12.30;99.90;;;;;;5111595;28;19923;-77
2023/07/22 00:54:04;;;;;;;;;;;12.20;99.90;;;;;;5111139;28;20353;-77
2023/07/22 00:56:32;;;;;;;;;;;12.20;99.90;;;;;;5111319;28;20376;-77
2023/07/22 00:58:58;;;;;;;;;;;12.10;99.90;;;;;;5110662;28;19973;-78
2023/07/22 01:01:24;;;;;;;;;;;12.10;99.90;;;;;;5111003;28;20634;-80
2023/07/22 01:03:51;;;;;;;;;;;11.80;99.90;;;;;;5093693;28;19974;-76
2023/07/22 01:06:18;;;;;;;;;;;12.00;99.90;;;;;;5110530;28;19924;-78
2023/07/22 01:08:44;;;;;;;;;;;12.00;99.90;;;;;;5112264;28;19930;-78
2023/07/22 01:11:10;;;;;;;;;;;11.90;99.90;;;;;;5098544;28;19923;-77
2023/07/22 01:13:36;;;;;;;;;;;12.00;99.90;;;;;;5115465;28;20383;-80
2023/07/22 01:16:01;;;;;;;;;;;11.90;99.90;;;;;;5097755;28;20418;-78
2023/07/22 01:18:27;;;;;;;;;;;11.80;99.90;;;;;;5114916;28;19920;-79
2023/07/22 01:20:52;;;;;;;;;;;11.80;99.90;;;;;;5114769;28;19920;-78
2023/07/22 01:23:18;;;;;;;;;;;11.80;99.90;;;;;;5114878;28;19919;-79
2023/07/22 01:25:43;;;;;;;;;;;11.70;99.90;;;;;;5098119;28;19939;-80
2023/07/22 01:28:10;;;;;;;;;;;11.70;99.90;;;;;;5113981;28;19924;-77
2023/07/22 01:30:36;;;;;;;;;;;11.70;99.90;;;;;;5114896;28;20314;-79
2023/07/22 01:33:01;;;;;;;;;;;11.70;99.90;;;;;;5114526;28;19928;-77
2023/07/22 01:35:28;;;;;;;;;;;11.70;99.90;;;;;;5114513;28;19919;-78
2023/07/22 01:37:53;;;;;;;;;;;11.70;99.90;;;;;;5114500;28;20297;-78
2023/07/22 01:40:19;;;;;;;;;;;11.70;99.90;;;;;;5104187;28;19920;-80
2023/07/22 01:42:48;;;;;;;;;;;11.60;99.90;;;;;;5095861;28;19953;-77
2023/07/22 01:45:15;;;;;;;;;;;11.50;99.90;;;;;;5077534;28;20408;-81
2023/07/22 01:47:40;;;;;;;;;;;11.50;99.90;;;;;;5094306;28;20293;-77
2023/07/22 01:50:06;;;;;;;;;;;11.50;99.90;;;;;;5068525;28;19919;-76
2023/07/22 01:52:32;;;;;;;;;;;11.40;99.90;;;;;;5114088;28;19932;-77
2023/07/22 01:54:59;;;;;;;;;;;11.40;99.90;;;;;;5097201;28;19926;-79
2023/07/22 01:57:24;;;;;;;;;;;11.30;99.90;;;;;;5114216;28;19924;-79
2023/07/22 01:59:50;;;;;;;;;;;11.30;99.90;;;;;;5113796;28;19930;-77
2023/07/22 02:02:16;;;;;;;;;;;11.30;99.90;;;;;;5097388;28;19928;-78
2023/07/22 02:04:42;;;;;;;;;;;11.20;99.90;;;;;;5097328;28;19920;-80
2023/07/22 02:07:09;;;;;;;;;;;11.20;99.90;;;;;;5113753;28;20368;-80
2023/07/22 02:09:35;;;;;;;;;;;11.10;99.90;;;;;;5097137;28;19920;-77
2023/07/22 02:12:00;;;;;;;;;;;11.10;99.90;;;;;;5096885;28;20433;-79
2023/07/22 02:14:26;;;;;;;;;;;11.00;99.90;;;;;;5114148;28;19924;-79
2023/07/22 02:16:51;;;;;;;;;;;10.90;99.90;;;;;;5096460;28;19953;-80
2023/07/22 02:19:17;;;;;;;;;;;10.80;99.90;;;;;;5114050;28;19923;-77
2023/07/22 02:21:43;;;;;;;;;;;10.80;99.90;;;;;;5079497;28;20408;-77
2023/07/22 02:24:09;;;;;;;;;;;10.80;99.90;;;;;;5113959;27;19920;-78
2023/07/22 02:26:40;;;;;;;;;;;10.80;99.90;;;;;;5097725;28;20293;-77
2023/07/22 02:29:13;;;;;;;;;;;10.70;99.90;;;;;;5098097;28;20201;-77
2023/07/22 02:31:39;;;;;;;;;;;10.70;99.90;;;;;;5113805;28;19926;-79
2023/07/22 02:34:05;;;;;;;;;;;10.60;99.90;;;;;;5096946;28;20360;-80
2023/07/22 02:36:31;;;;;;;;;;;10.60;99.90;;;;;;5086951;28;19973;-79
2023/07/22 02:38:56;;;;;;;;;;;10.60;99.90;;;;;;5093022;28;20265;-77
2023/07/22 02:41:28;;;;;;;;;;;10.60;99.90;;;;;;5077362;28;20276;-79
2023/07/22 02:43:53;;;;;;;;;;;10.60;99.90;;;;;;5075816;28;19928;-80
2023/07/22 02:46:19;;;;;;;;;;;10.60;99.90;;;;;;5092766;28;19924;-78
2023/07/22 02:48:45;;;;;;;;;;;10.60;99.90;;;;;;5093603;28;19977;-80
2023/07/22 02:51:10;;;;;;;;;;;10.60;99.90;;;;;;5111615;28;20384;-78
2023/07/22 02:53:36;;;;;;;;;;;10.50;99.90;;;;;;5113435;28;20575;-80
2023/07/22 02:56:02;;;;;;;;;;;10.50;99.90;;;;;;5113745;28;19984;-79
2023/07/22 02:58:28;;;;;;;;;;;10.50;99.90;;;;;;5113848;27;20357;-76
2023/07/22 03:00:54;;;;;;;;;;;10.40;99.90;;;;;;5112667;28;19935;-78
2023/07/22 03:03:19;;;;;;;;;;;10.40;99.90;;;;;;5113146;28;19919;-76
2023/07/22 03:05:48;;;;;;;;;;;10.40;99.90;;;;;;5113852;28;19931;-78
2023/07/22 03:08:14;;;;;;;;;;;10.30;99.90;;;;;;5095803;28;19924;-76
2023/07/22 03:10:39;;;;;;;;;;;10.30;99.90;;;;;;5095540;28;19959;-76
2023/07/22 03:13:05;;;;;;;;;;;10.30;99.90;;;;;;5113010;28;19920;-77
2023/07/22 03:15:30;;;;;;;;;;;10.30;99.90;;;;;;5112590;28;19978;-77
2023/07/22 03:17:56;;;;;;;;;;;10.30;99.90;;;;;;5112618;28;19919;-80
2023/07/22 03:20:23;;;;;;;;;;;10.30;99.90;;;;;;5113698;28;19924;-79
2023/07/22 03:22:49;;;;;;;;;;;10.20;99.90;;;;;;5113728;28;20000;-77
2023/07/22 03:25:16;;;;;;;;;;;10.20;99.90;;;;;;5095196;28;19923;-77
2023/07/22 03:27:42;;;;;;;;;;;10.20;99.90;;;;;;5095043;28;19977;-80
2023/07/22 03:30:11;;;;;;;;;;;10.20;99.90;;;;;;5111918;28;19963;-78
2023/07/22 03:32:37;;;;;;;;;;;10.20;99.90;;;;;;5110833;28;20034;-78
2023/07/22 03:35:03;;;;;;;;;;;10.20;99.90;;;;;;5094207;28;20401;-77
2023/07/22 03:37:29;;;;;;;;;;;10.20;99.90;;;;;;5112677;28;20011;-77
2023/07/22 03:39:56;;;;;;;;;;;10.20;99.90;;;;;;5112904;28;19967;-76
2023/07/22 03:42:21;;;;;;;;;;;10.20;99.90;;;;;;5112390;28;19927;-78
2023/07/22 03:44:47;;;;;;;;;;;10.30;99.90;;;;;;5095074;28;20524;-77
2023/07/22 03:47:12;;;;;;;;;;;10.30;99.90;;;;;;5077687;28;19928;-78
2023/07/22 03:49:41;;;;;;;;;;;10.30;99.90;;;;;;5112384;28;19920;-78
2023/07/22 03:52:07;;;;;;;;;;;10.30;99.90;;;;;;5112195;28;19927;-79
2023/07/22 03:54:32;;;;;;;;;;;10.40;99.90;;;;;;5111322;28;19927;-77
2023/07/22 03:56:58;;;;;;;;;;;10.50;99.90;;;;;;5095296;28;19920;-81
2023/07/22 03:59:23;;;;;;;;;;;10.50;99.90;;;;;;5095108;28;19935;-81
2023/07/22 04:01:49;;;;;;;;;;;10.60;99.90;;;;;;5097311;28;20379;-77
2023/07/22 04:04:15;;;;;;;;;;;10.70;99.90;;;;;;5098829;28;19963;-81
2023/07/22 04:06:40;;;;;;;;;;;10.80;99.90;;;;;;5095390;28;19927;-78
2023/07/22 04:09:07;;;;;;;;;;;10.90;99.90;;;;;;5094917;28;19919;-78
2023/07/22 04:11:32;;;;;;;;;;;11.00;99.90;;;;;;5114167;27;19927;-78
2023/07/22 04:13:58;;;;;;;;;;;11.10;99.90;;;;;;5113671;28;20418;-77
2023/07/22 04:16:23;;;;;;;;;;;11.20;99.90;;;;;;5077540;28;19928;-77
2023/07/22 04:18:49;;;;;;;;;;;11.30;99.90;;;;;;5095005;28;20398;-77
2023/07/22 04:21:15;;;;;;;;;;;11.40;99.90;;;;;;5111069;28;19931;-78
2023/07/22 04:23:43;;;;;;;;;;;11.50;99.90;;;;;;5078180;28;20303;-78
2023/07/22 04:26:09;;;;;;;;;;;11.50;99.90;;;;;;5094411;28;19980;-77
2023/07/22 04:28:34;;;;;;;;;;;11.60;99.90;;;;;;5111349;28;20010;-76
2023/07/22 04:31:02;;;;;;;;;;;11.70;99.90;;;;;;5094520;28;19971;-78
2023/07/22 04:33:29;;;;;;;;;;;11.70;99.90;;;;;;5111534;28;19942;-78
2023/07/22 04:35:59;;;;;;;;;;;11.80;99.90;;;;;;5111459;28;19920;-79
2023/07/22 04:38:28;;;;;;;;;;;11.90;99.90;;;;;;5112816;28;20374;-80
2023/07/22 04:40:53;;;;;;;;;;;12.00;99.90;;;;;;5111142;28;20058;-79
2023/07/22 04:43:19;;;;;;;;;;;12.00;99.90;;;;;;5110940;28;19931;-79
2023/07/22 04:45:47;;;;;;;;;;;12.10;99.90;;;;;;5111025;28;20024;-79
2023/07/22 04:48:14;;;;;;;;;;;12.20;99.90;;;;;;5094553;28;20300;-79
2023/07/22 04:50:46;;;;;;;;;;;12.30;99.90;;;;;;5095522;28;20402;-77
2023/07/22 04:53:15;;;;;;;;;;;12.30;99.90;;;;;;5093521;28;19923;-78
2023/07/22 04:55:41;;;;;;;;;;;12.40;99.90;;;;;;5094353;28;20024;-80
2023/07/22 04:58:08;;;;;;;;;;;12.50;99.90;;;;;;5110861;28;20000;-78
2023/07/22 05:00:34;;;;;;;;;;;12.50;99.90;;;;;;5111416;28;20497;-78
2023/07/22 05:03:00;;;;;;;;;;;12.60;99.90;;;;;;5094574;28;20276;-78
2023/07/22 05:05:25;;;;;;;;;;;12.70;99.90;;;;;;5094322;28;19924;-77
2023/07/22 05:07:57;;;;;;;;;;;12.70;99.90;;;;;;5111083;28;19928;-78
2023/07/22 05:10:22;;;;;;;;;;;12.80;99.90;;;;;;5111393;28;20422;-80
2023/07/22 05:12:48;;;;;;;;;;;12.80;99.90;;;;;;5110722;28;20007;-77
2023/07/22 05:15:15;;;;;;;;;;;12.80;99.90;;;;;;5093521;28;19931;-81
2023/07/22 05:17:41;;;;;;;;;;;12.90;99.90;;;;;;5111409;28;19941;-79
2023/07/22 05:20:09;;;;;;;;;;;12.90;99.90;;;;;;5094026;28;19920;-78
2023/07/22 05:22:39;;;;;;;;;;;12.90;99.90;;;;;;5112064;28;19927;-79
2023/07/22 05:25:05;;;;;;;;;;;13.00;99.90;;;;;;5110300;28;19927;-78
2023/07/22 05:27:30;;;;;;;;;;;13.00;99.90;;;;;;5094090;28;19924;-81
2023/07/22 05:29:56;;;;;;;;;;;13.00;99.90;;;;;;5094457;28;19919;-77
2023/07/22 05:32:22;;;;;;;;;;;13.10;99.90;;;;;;5093769;28;19970;-78
2023/07/22 05:34:48;;;;;;;;;;;13.10;99.90;;;;;;5111834;28;19987;-78
2023/07/22 05:37:14;;;;;;;;;;;13.30;99.90;;;;;;5110741;28;20334;-76
2023/07/22 05:39:43;;;;;;;;;;;13.30;99.90;;;;;;5112554;28;19976;-79
2023/07/22 05:42:09;;;;;;;;;;;13.50;99.90;;;;;;5111041;28;20008;-78
2023/07/22 05:44:35;;;;;;;;;;;13.60;99.90;;;;;;5111123;28;20018;-77
2023/07/22 05:47:00;;;;;;;;;;;13.70;99.90;;;;;;5093800;28;20022;-78
2023/07/22 05:49:26;;;;;;;;;;;13.80;99.90;;;;;;5093600;28;19920;-81
2023/07/22 05:51:52;;;;;;;;;;;13.90;99.90;;;;;;5095334;28;19928;-79
2023/07/22 05:54:17;;;;;;;;;;;13.90;99.90;;;;;;5110414;28;20015;-83
2023/07/22 05:56:43;;;;;;;;;;;14.00;99.90;;;;;;5113400;28;19924;-80
2023/07/22 05:59:08;;;;;;;;;;;14.00;99.90;;;;;;5114778;28;19920;-81
2023/07/22 06:01:34;;;;;;;;;;;14.10;99.90;;;;;;5114426;28;19988;-79
2023/07/22 06:04:00;;;;;;;;;;;14.20;99.90;;;;;;5114834;28;19920;-79
2023/07/22 06:06:25;;;;;;;;;;;14.30;99.90;;;;;;5113793;28;19932;-76
2023/07/22 06:08:55;;;;;;;;;;;14.30;99.90;;;;;;5115880;28;19924;-83
2023/07/22 06:11:21;;;;;;;;;;;14.40;99.90;;;;;;5113212;28;19930;-78
2023/07/22 06:13:46;;;;;;;;;;;14.60;99.90;;;;;;5080233;28;19920;-80
2023/07/22 06:16:12;;;;;;;;;;;14.70;99.90;;;;;;5115334;28;19930;-79
2023/07/22 06:18:37;;;;;;;;;;;14.80;99.90;;;;;;5114562;28;20317;-77
2023/07/22 06:21:03;;;;;;;;;;;15.00;99.90;;;;;;5097563;28;19923;-79
2023/07/22 06:23:35;;;;;;;;;;;15.10;99.90;;;;;;5114837;28;20331;-79
2023/07/22 06:26:01;;;;;;;;;;;15.20;99.90;;;;;;5097892;28;19932;-81
2023/07/22 06:28:27;;;;;;;;;;;15.40;99.90;;;;;;5080303;28;20359;-80
2023/07/22 06:30:59;;;;;;;;;;;15.40;99.90;;;;;;5114590;28;19968;-77
2023/07/22 06:33:24;;;;;;;;;;;15.40;99.90;;;;;;5114083;28;19924;-80
2023/07/22 06:35:50;;;;;;;;;;;15.50;99.90;;;;;;5096919;28;20426;-77
2023/07/22 06:38:16;;;;;;;;;;;15.50;99.90;;;;;;5097021;28;19924;-79
2023/07/22 06:40:41;;;;;;;;;;;15.60;99.90;;;;;;5113917;28;19931;-77
2023/07/22 06:43:07;;;;;;;;;;;15.60;99.90;;;;;;5114185;28;20314;-77
2023/07/22 06:45:35;;;;;;;;;;;15.70;99.90;;;;;;5114551;28;19926;-77
2023/07/22 06:48:02;;;;;;;;;;;15.90;99.90;;;;;;5096358;28;19931;-78
2023/07/22 06:50:28;;;;;;;;;;;16.00;99.90;;;;;;5112981;28;20006;-78
2023/07/22 06:52:54;;;;;;;;;;;16.10;99.90;;;;;;5096202;28;20015;-81
2023/07/22 06:55:20;;;;;;;;;;;16.20;99.90;;;;;;5096440;28;19920;-79
2023/07/22 06:57:48;;;;;;;;;;;16.40;99.90;;;;;;5113085;28;19926;-79
2023/07/22 07:00:13;;;;;;;;;;;16.50;99.90;;;;;;5079354;28;20010;-77
2023/07/22 07:02:39;;;;;;;;;;;16.50;99.90;;;;;;5112997;28;20391;-80
2023/07/22 07:05:05;;;;;;;;;;;16.70;99.90;;;;;;5112541;28;20281;-78
2023/07/22 07:07:32;;;;;;;;;;;16.80;99.90;;;;;;5112063;28;19972;-80
2023/07/22 07:09:58;;;;;;;;;;;16.80;99.90;;;;;;5079660;28;20418;-80
2023/07/22 07:12:23;;;;;;;;;;;17.00;99.90;;;;;;5095744;28;20006;-76
2023/07/22 07:14:53;;;;;;;;;;;17.20;99.90;;;;;;5096057;28;19924;-78
2023/07/22 07:17:19;;;;;;;;;;;17.30;99.90;;;;;;5089824;28;19963;-77
2023/07/22 07:19:45;;;;;;;;;;;17.40;99.90;;;;;;5092568;28;20017;-78
2023/07/22 07:22:10;;;;;;;;;;;17.40;99.90;;;;;;5092098;28;19973;-80
2023/07/22 07:24:39;;;;;;;;;;;17.40;99.90;;;;;;5093419;28;19955;-78
2023/07/22 07:27:07;;;;;;;;;;;17.40;99.90;;;;;;5075453;28;20446;-78
2023/07/22 07:29:32;;;;;;;;;;;17.40;99.90;;;;;;5091985;28;19924;-77
2023/07/22 07:31:58;;;;;;;;;;;17.30;99.90;;;;;;5092228;28;19924;-77
2023/07/22 07:34:24;;;;;;;;;;;17.20;99.90;;;;;;5091643;28;20027;-78
2023/07/22 07:36:49;;;;;;;;;;;17.20;99.90;;;;;;5075123;28;19943;-78
2023/07/22 07:39:15;;;;;;;;;;;17.20;99.90;;;;;;5058694;28;19931;-79
2023/07/22 07:41:40;;;;;;;;;;;17.10;99.90;;;;;;5091717;28;19920;-77
2023/07/22 07:44:06;;;;;;;;;;;17.20;99.90;;;;;;5092130;28;19955;-78
2023/07/22 07:46:32;;;;;;;;;;;17.30;99.90;;;;;;5091774;28;19931;-79
2023/07/22 07:49:03;;;;;;;;;;;17.40;99.90;;;;;;5074492;28;19920;-79
2023/07/22 07:51:29;;;;;;;;;;;17.50;99.90;;;;;;5094694;28;20527;-78
2023/07/22 07:53:55;;;;;;;;;;;17.50;99.90;;;;;;5112202;28;19923;-80
2023/07/22 07:56:21;;;;;;;;;;;17.60;99.90;;;;;;5113299;28;19926;-77
2023/07/22 07:58:47;;;;;;;;;;;17.70;99.90;;;;;;5112128;28;19920;-80
2023/07/22 08:01:19;;;;;;;;;;;17.80;99.90;;;;;;5112395;28;19927;-79
2023/07/22 08:03:45;;;;;;;;;;;17.80;99.90;;;;;;5095461;28;19924;-78
2023/07/22 08:06:11;;;;;;;;;;;17.90;99.90;;;;;;5095046;28;20308;-80
2023/07/22 08:08:38;;;;;;;;;;;18.00;99.90;;;;;;5111724;28;20364;-81
2023/07/22 08:11:07;;;;;;;;;;;18.00;99.90;;;;;;5113759;28;20284;-78
2023/07/22 08:13:35;;;;;;;;;;;18.10;99.90;;;;;;5111394;28;19919;-78
2023/07/22 08:16:05;;;;;;;;;;;18.10;99.90;;;;;;5111973;28;19977;-78
2023/07/22 08:18:34;;;;;;;;;;;18.30;99.90;;;;;;5112498;28;19924;-80
2023/07/22 08:21:00;;;;;;;;;;;18.40;99.90;;;;;;5094781;28;20024;-78
2023/07/22 08:23:26;;;;;;;;;;;18.60;99.90;;;;;;5077675;28;19931;-80
2023/07/22 08:25:55;;;;;;;;;;;18.80;99.90;;;;;;5114331;28;19969;-80
2023/07/22 08:28:21;;;;;;;;;;;19.00;99.90;;;;;;5094843;28;19923;-80
2023/07/22 08:30:50;;;;;;;;;;;19.20;99.90;;;;;;5111348;28;19923;-80
2023/07/22 08:33:16;;;;;;;;;;;19.40;99.90;;;;;;5094959;28;19946;-78
2023/07/22 08:35:42;;;;;;;;;;;19.50;99.90;;;;;;5077897;28;20360;-77
2023/07/22 08:38:09;;;;;;;;;;;19.50;99.90;;;;;;5111593;28;19965;-79
2023/07/22 08:40:35;;;;;;;;;;;19.50;99.90;;;;;;5111779;28;19919;-79
2023/07/22 08:43:01;;;;;;;;;;;19.50;99.90;;;;;;5112350;28;19959;-80
2023/07/22 08:45:29;;;;;;;;;;;19.50;99.90;;;;;;5111653;28;19924;-79
2023/07/22 08:47:57;;;;;;;;;;;19.30;99.90;;;;;;5112686;28;19936;-78
2023/07/22 08:50:25;;;;;;;;;;;19.20;99.90;;;;;;5111395;28;19927;-79
2023/07/22 08:52:52;;;;;;;;;;;19.30;99.90;;;;;;5094653;28;20372;-80
2023/07/22 08:55:19;;;;;;;;;;;19.30;99.90;;;;;;5112073;28;19928;-81
2023/07/22 08:57:45;;;;;;;;;;;19.50;99.90;;;;;;5110708;28;19930;-80
2023/07/22 09:00:11;;;;;;;;;;;19.70;99.90;;;;;;5094252;28;19919;-79
2023/07/22 09:02:37;;;;;;;;;;;19.70;99.90;;;;;;5094012;28;19923;-82
2023/07/22 09:05:05;;;;;;;;;;;19.70;99.90;;;;;;5112022;28;20273;-77
2023/07/22 09:07:30;;;;;;;;;;;19.80;99.90;;;;;;5111081;28;19986;-80
2023/07/22 09:09:56;;;;;;;;;;;19.90;99.90;;;;;;5086843;28;19975;-78
2023/07/22 09:12:25;;;;;;;;;;;20.00;99.90;;;;;;5092411;28;19931;-78
2023/07/22 09:14:53;;;;;;;;;;;20.10;99.90;;;;;;5090705;28;19924;-78
2023/07/22 09:17:20;;;;;;;;;;;20.20;99.90;;;;;;5090424;28;19924;-80
2023/07/22 09:19:46;;;;;;;;;;;20.40;99.90;;;;;;5073337;28;20387;-77
2023/07/22 09:22:11;;;;;;;;;;;20.40;99.90;;;;;;5090605;28;19928;-79
2023/07/22 09:24:39;;;;;;;;;;;20.40;99.90;;;;;;5090104;28;19930;-78
2023/07/22 09:27:04;;;;;;;;;;;20.20;99.90;;;;;;5057192;28;19975;-79
2023/07/22 09:29:34;;;;;;;;;;;19.80;99.90;;;;;;5073705;28;19966;-81
2023/07/22 09:31:59;;;;;;;;;;;19.40;99.90;;;;;;5093934;28;19928;-81
2023/07/22 09:34:25;;;;;;;;;;;19.00;99.90;;;;;;5077715;28;19970;-77
2023/07/22 09:36:55;;;;;;;;;;;18.70;99.90;;;;;;5061197;28;19981;-78
2023/07/22 09:39:22;;;;;;;;;;;18.50;99.90;;;;;;5077961;28;20380;-79
2023/07/22 09:41:52;;;;;;;;;;;18.40;99.90;;;;;;5096185;28;19998;-78
2023/07/22 09:44:18;;;;;;;;;;;18.10;99.90;;;;;;5061039;28;19927;-81
2023/07/22 09:46:48;;;;;;;;;;;17.70;99.90;;;;;;5093716;28;20357;-81
2023/07/22 09:49:15;;;;;;;;;;;17.40;99.90;;;;;;5078742;28;19924;-79
2023/07/22 09:51:41;;;;;;;;;;;17.20;99.90;;;;;;5114249;28;19920;-78
2023/07/22 09:54:07;;;;;;;;;;;17.10;99.90;;;;;;5113429;28;19989;-77
2023/07/22 09:56:42;;;;;;;;;;;17.00;99.90;;;;;;5097335;28;19930;-78
2023/07/22 09:59:09;;;;;;;;;;;17.00;99.90;;;;;;5114466;28;20296;-77
2023/07/22 10:01:35;;;;;;;;;;;17.10;99.90;;;;;;5113640;28;19919;-76
2023/07/22 10:04:04;;;;;;;;;;;17.30;99.90;;;;;;5080268;28;19931;-79
2023/07/22 10:06:30;;;;;;;;;;;17.40;99.90;;;;;;5104307;28;19997;-76
2023/07/22 10:08:56;;;;;;;;;;;17.40;99.90;;;;;;5077024;28;20354;-76
2023/07/22 10:11:26;;;;;;;;;;;17.50;99.90;;;;;;5093923;28;19927;-78
2023/07/22 10:13:54;;;;;;;;;;;17.60;99.90;;;;;;5093059;28;19924;-80
2023/07/22 10:16:20;;;;;;;;;;;17.60;99.90;;;;;;5094718;28;20273;-78
2023/07/22 10:18:48;;;;;;;;;;;17.50;99.90;;;;;;5093183;28;19920;-78
2023/07/22 10:21:13;;;;;;;;;;;17.50;99.90;;;;;;5094190;28;19930;-79
2023/07/22 10:23:40;;;;;;;;;;;17.50;99.90;;;;;;5075990;28;19998;-77
2023/07/22 10:26:06;;;;;;;;;;;17.50;99.90;;;;;;5076192;28;20007;-79
2023/07/22 10:28:32;;;;;;;;;;;17.50;99.90;;;;;;5093802;28;20555;-78
2023/07/22 10:30:58;;;;;;;;;;;17.50;99.90;;;;;;5093640;28;19931;-81
2023/07/22 10:33:25;;;;;;;;;;;17.40;99.90;;;;;;5076626;28;19932;-77
2023/07/22 10:36:03;;;;;;;;;;;17.30;99.90;;;;;;5093112;28;19927;-80
2023/07/22 10:38:28;;;;;;;;;;;17.30;99.90;;;;;;5093254;28;19920;-75
2023/07/22 10:40:58;;;;;;;;;;;17.40;99.90;;;;;;5093609;28;19979;-81
2023/07/22 10:43:31;;;;;;;;;;;17.50;99.90;;;;;;5060477;28;19926;-80
2023/07/22 10:45:58;;;;;;;;;;;17.60;99.90;;;;;;5092662;28;19932;-79
2023/07/22 10:48:34;;;;;;;;;;;17.60;99.90;;;;;;5076073;28;19924;-76
2023/07/22 10:51:11;;;;;;;;;;;17.50;99.90;;;;;;5092527;28;19946;-79
2023/07/22 10:53:44;;;;;;;;;;;17.40;99.90;;;;;;5075711;28;20387;-78
2023/07/22 10:56:13;;;;;;;;;;;17.40;99.90;;;;;;5092586;28;19920;-80
2023/07/22 10:58:44;;;;;;;;;;;17.50;99.90;;;;;;5093858;28;19967;-78
2023/07/22 11:01:26;;;;;;;;;;;17.50;99.90;;;;;;5076463;28;19923;-76
2023/07/22 11:04:15;;;;;;;;;;;17.50;99.90;;;;;;5080299;28;19919;-78
2023/07/22 11:06:41;;;;;;;;;;;17.50;99.90;;;;;;5112871;28;20004;-78
2023/07/22 11:09:27;;;;;;;;;;;17.40;99.90;;;;;;5113955;28;20284;-78
2023/07/22 11:11:59;;;;;;;;;;;17.20;99.90;;;;;;5112885;28;20301;-79
2023/07/22 11:14:26;;;;;;;;;;;17.00;99.90;;;;;;5114014;28;19931;-77
2023/07/22 11:16:52;;;;;;;;;;;16.90;99.90;;;;;;5095620;28;19924;-78
2023/07/22 11:19:18;;;;;;;;;;;16.80;99.90;;;;;;5112864;28;19926;-79
2023/07/22 11:21:44;;;;;;;;;;;16.70;99.90;;;;;;5097000;28;19966;-78
2023/07/22 11:24:10;;;;;;;;;;;16.70;99.90;;;;;;5114229;28;19923;-78
2023/07/22 11:26:37;;;;;;;;;;;16.60;99.90;;;;;;5113136;28;19996;-77
2023/07/22 11:29:05;;;;;;;;;;;16.60;99.90;;;;;;5112513;28;20039;-79
2023/07/22 11:31:34;;;;;;;;;;;16.60;99.90;;;;;;5112683;28;20269;-79
2023/07/22 11:34:00;;;;;;;;;;;16.60;99.90;;;;;;5112102;28;19920;-79
2023/07/22 11:36:26;;;;;;;;;;;16.60;99.90;;;;;;5095260;28;19977;-77
2023/07/22 11:39:02;;;;;;;;;;;16.60;99.90;;;;;;5095970;28;20524;-77
2023/07/22 11:41:28;;;;;;;;;;;16.60;99.90;;;;;;5112190;28;19967;-77
2023/07/22 11:43:56;;;;;;;;;;;16.60;99.90;;;;;;5094801;28;19927;-78
2023/07/22 11:46:22;;;;;;;;;;;16.60;99.90;;;;;;5111729;28;20319;-77
2023/07/22 11:48:51;;;;;;;;;;;16.60;99.90;;;;;;5111078;28;19968;-77
2023/07/22 11:51:25;;;;;;;;;;;16.60;99.90;;;;;;5094529;28;20212;-76
2023/07/22 11:53:51;;;;;;;;;;;16.60;99.90;;;;;;5093309;28;19923;-77
2023/07/22 11:56:18;;;;;;;;;;;16.60;99.90;;;;;;5111754;28;20360;-78
2023/07/22 11:58:47;;;;;;;;;;;16.70;99.90;;;;;;5095000;28;19928;-77
2023/07/22 12:01:15;;;;;;;;;;;16.80;99.90;;;;;;5111996;28;19920;-78
2023/07/22 12:03:40;;;;;;;;;;;16.90;99.90;;;;;;5112580;28;19926;-77
2023/07/22 12:06:06;;;;;;;;;;;17.00;99.90;;;;;;5096027;28;20035;-76
2023/07/22 12:08:38;;;;;;;;;;;17.30;99.90;;;;;;5113245;28;19977;-75
2023/07/22 12:11:04;;;;;;;;;;;17.40;99.90;;;;;;5095738;28;19924;-78
2023/07/22 12:13:35;;;;;;;;;;;17.50;99.90;;;;;;5113499;28;20038;-77
2023/07/22 12:16:02;;;;;;;;;;;17.50;99.90;;;;;;5095394;28;19924;-79
2023/07/22 12:18:28;;;;;;;;;;;17.40;99.90;;;;;;5095756;28;19979;-79
2023/07/22 12:20:53;;;;;;;;;;;17.30;99.90;;;;;;5095116;28;20709;-80
2023/07/22 12:23:21;;;;;;;;;;;17.20;99.90;;;;;;5111977;28;19963;-81
2023/07/22 12:25:47;;;;;;;;;;;17.00;99.90;;;;;;5111509;28;19919;-77
2023/07/22 12:28:12;;;;;;;;;;;16.90;99.90;;;;;;5111751;28;19950;-79
2023/07/22 12:30:38;;;;;;;;;;;16.90;99.90;;;;;;5094864;28;19924;-77
2023/07/22 12:33:05;;;;;;;;;;;17.00;99.90;;;;;;5094711;28;20700;-78
2023/07/22 12:35:30;;;;;;;;;;;17.00;99.90;;;;;;5111146;28;20377;-77
2023/07/22 12:37:56;;;;;;;;;;;16.90;99.90;;;;;;5110903;28;19999;-77
2023/07/22 12:40:21;;;;;;;;;;;16.90;99.90;;;;;;5111262;28;20250;-77
2023/07/22 12:42:47;;;;;;;;;;;16.90;99.90;;;;;;5110949;28;19920;-76
2023/07/22 12:45:13;;;;;;;;;;;16.90;99.90;;;;;;5111505;28;19920;-79
2023/07/22 12:47:39;;;;;;;;;;;16.90;99.90;;;;;;5111634;28;19924;-77
2023/07/22 12:50:07;;;;;;;;;;;16.90;99.90;;;;;;5110958;28;19923;-76
2023/07/22 12:52:33;;;;;;;;;;;16.90;99.90;;;;;;5094832;28;19920;-79
2023/07/22 12:54:58;;;;;;;;;;;16.80;99.90;;;;;;5094670;28;20003;-78
2023/07/22 12:57:24;;;;;;;;;;;16.80;99.90;;;;;;5111519;28;19924;-76
2023/07/22 12:59:49;;;;;;;;;;;16.80;99.90;;;;;;5094514;28;20388;-84
2023/07/22 13:02:16;;;;;;;;;;;16.80;99.90;;;;;;5095464;28;19973;-81
2023/07/22 13:04:43;;;;;;;;;;;16.80;99.90;;;;;;5113595;28;20018;-83
2023/07/22 13:07:09;;;;;;;;;;;16.80;99.90;;;;;;5117099;28;19927;-84
2023/07/22 13:09:35;;;;;;;;;;;16.90;99.90;;;;;;5115771;28;19926;-76
2023/07/22 13:12:01;;;;;;;;;;;17.10;99.90;;;;;;5098065;28;19962;-82
2023/07/22 13:14:27;;;;;;;;;;;17.30;99.90;;;;;;5115400;28;19924;-81
2023/07/22 13:16:53;;;;;;;;;;;17.40;99.90;;;;;;5098988;28;19972;-78
2023/07/22 13:19:18;;;;;;;;;;;17.70;99.90;;;;;;5098651;28;20584;-81
2023/07/22 13:21:44;;;;;;;;;;;18.00;99.90;;;;;;5118266;28;19998;-79
2023/07/22 13:24:09;;;;;;;;;;;18.30;99.90;;;;;;5115791;28;19920;-80
2023/07/22 13:26:35;;;;;;;;;;;18.40;99.90;;;;;;5115387;28;19924;-80
2023/07/22 13:29:01;;;;;;;;;;;18.50;99.90;;;;;;5098208;28;19931;-78
2023/07/22 13:31:27;;;;;;;;;;;18.70;99.90;;;;;;5115003;28;19920;-76
2023/07/22 13:33:52;;;;;;;;;;;18.90;99.90;;;;;;5114840;28;19920;-80
2023/07/22 13:36:24;;;;;;;;;;;19.00;99.90;;;;;;5115763;28;20057;-78
2023/07/22 13:38:52;;;;;;;;;;;19.10;99.90;;;;;;5116342;27;20379;-76
2023/07/22 13:41:19;;;;;;;;;;;19.10;99.90;;;;;;5115774;28;19920;-78
2023/07/22 13:43:47;;;;;;;;;;;19.10;99.90;;;;;;5115986;28;19928;-78
2023/07/22 13:46:16;;;;;;;;;;;19.10;99.90;;;;;;5116595;28;20023;-79
2023/07/22 13:48:43;;;;;;;;;;;19.10;99.90;;;;;;5115321;28;19970;-78
2023/07/22 13:51:08;;;;;;;;;;;19.00;99.90;;;;;;5097874;28;19924;-78
2023/07/22 13:53:34;;;;;;;;;;;18.90;99.90;;;;;;5095015;28;19924;-80
2023/07/22 13:55:59;;;;;;;;;;;18.90;99.90;;;;;;5094428;28;19969;-81
2023/07/22 13:58:26;;;;;;;;;;;18.90;99.90;;;;;;5094929;28;19924;-81
2023/07/22 14:00:55;;;;;;;;;;;18.70;99.90;;;;;;5095785;28;20321;-79
2023/07/22 14:03:20;;;;;;;;;;;18.50;99.90;;;;;;5116114;28;19967;-79
2023/07/22 14:05:48;;;;;;;;;;;18.20;99.90;;;;;;5098617;28;20262;-79
2023/07/22 14:08:13;;;;;;;;;;;18.00;99.90;;;;;;5115969;28;19926;-78
2023/07/22 14:10:39;;;;;;;;;;;17.90;99.90;;;;;;5116853;28;20285;-80
2023/07/22 14:13:04;;;;;;;;;;;17.80;99.90;;;;;;5115445;28;19920;-78